createdAt,value
2018-05-12T00:00:02.044Z,13.5
2018-05-12T00:05:02.051Z,13.52
2018-05-12T00:10:02.062Z,13.53
2018-05-12T00:15:02.081Z,13.53
2018-05-12T00:20:02.054Z,13.55
2018-05-12T00:25:02.079Z,13.56
2018-05-12T00:30:02.062Z,13.55
2018-05-12T00:35:02.062Z,13.58
2018-05-12T00:40:02.081Z,13.59
2018-05-12T00:45:02.071Z,13.6
2018-05-12T00:50:02.078Z,13.6
2018-05-12T00:55:02.091Z,13.6
2018-05-12T01:00:02.077Z,13.58
2018-05-12T01:05:02.079Z,13.55
2018-05-12T01:10:02.147Z,13.55
2018-05-12T01:15:02.127Z,13.51
2018-05-12T01:20:02.087Z,13.51
2018-05-12T01:25:02.102Z,13.5
2018-05-12T01:30:02.094Z,13.5
2018-05-12T01:35:02.102Z,13.47
2018-05-12T01:40:02.106Z,13.47
2018-05-12T01:45:02.105Z,13.45
2018-05-12T01:50:02.106Z,13.45
2018-05-12T01:55:02.103Z,13.44
2018-05-12T02:00:02.115Z,13.44
2018-05-12T02:05:02.114Z,13.41
2018-05-12T02:10:02.110Z,13.4
2018-05-12T02:15:02.117Z,13.39
2018-05-12T02:20:02.122Z,13.36
2018-05-12T02:25:02.122Z,13.37
2018-05-12T02:30:02.129Z,13.35
2018-05-12T02:35:02.147Z,13.34
2018-05-12T02:40:02.143Z,13.33
2018-05-12T02:45:02.136Z,13.3
2018-05-12T02:50:02.141Z,13.29
2018-05-12T02:55:02.139Z,13.29
2018-05-12T03:00:02.167Z,13.27
2018-05-12T03:05:02.147Z,13.25
2018-05-12T03:10:02.161Z,13.25
2018-05-12T03:15:02.158Z,13.25
2018-05-12T03:20:02.151Z,13.24
2018-05-12T03:25:02.165Z,13.23
2018-05-12T03:30:02.156Z,13.22
2018-05-12T03:35:02.156Z,13.21
2018-05-12T03:40:02.165Z,13.2
2018-05-12T03:45:02.167Z,13.17
2018-05-12T03:50:02.169Z,13.16
2018-05-12T03:55:02.169Z,13.15
2018-05-12T04:00:02.213Z,13.17
2018-05-12T04:05:02.174Z,13.16
2018-05-12T04:10:02.176Z,13.16
2018-05-12T04:15:02.182Z,13.16
2018-05-12T04:20:02.185Z,13.18
2018-05-12T04:25:02.185Z,13.19
2018-05-12T04:30:02.189Z,13.21
2018-05-12T04:35:02.189Z,13.25
2018-05-12T04:40:02.196Z,13.27
2018-05-12T04:45:02.209Z,13.3
2018-05-12T04:50:02.204Z,13.33
2018-05-12T04:55:02.200Z,13.35
2018-05-12T05:00:02.212Z,13.37
2018-05-12T05:05:02.211Z,13.4
2018-05-12T05:10:02.212Z,13.43
2018-05-12T05:15:02.221Z,13.46
2018-05-12T05:20:02.216Z,13.49
2018-05-12T05:25:02.222Z,13.53
2018-05-12T05:30:02.222Z,13.59
2018-05-12T05:35:02.227Z,13.64
2018-05-12T05:40:02.230Z,13.71
2018-05-12T05:45:02.231Z,13.82
2018-05-12T05:50:02.228Z,13.96
2018-05-12T05:55:02.233Z,14.12
2018-05-12T06:00:02.249Z,14.33
2018-05-12T06:05:02.252Z,14.57
2018-05-12T06:10:02.258Z,14.86
2018-05-12T06:15:02.250Z,15.18
2018-05-12T06:20:02.256Z,15.31
2018-05-12T06:25:02.254Z,15.32
2018-05-12T06:30:02.257Z,15.39
2018-05-12T06:35:02.256Z,15.56
2018-05-12T06:40:02.257Z,15.78
2018-05-12T06:45:02.273Z,15.84
2018-05-12T06:50:02.261Z,15.84
2018-05-12T06:51:50.563Z,15.86
2018-05-12T06:55:02.260Z,15.89
2018-05-12T06:55:09.350Z,15.89
2018-05-12T06:58:35.700Z,15.93
2018-05-12T07:00:02.271Z,15.93
2018-05-12T07:05:02.267Z,16.02
2018-05-12T07:10:02.275Z,16.15
2018-05-12T07:15:02.281Z,16.32
2018-05-12T07:20:02.277Z,16.75
2018-05-12T07:25:02.291Z,17.16
2018-05-12T07:30:02.292Z,17.2
2018-05-12T07:35:02.290Z,17.11
2018-05-12T07:40:02.286Z,17.13
2018-05-12T07:45:02.295Z,17.18
2018-05-12T07:50:02.298Z,17.36
2018-05-12T07:55:02.295Z,17.61
2018-05-12T08:00:02.352Z,17.95
2018-05-12T08:05:02.300Z,18.14
2018-05-12T08:10:02.301Z,17.94
2018-05-12T08:15:02.302Z,17.68
2018-05-12T08:20:02.307Z,17.51
2018-05-12T08:25:02.304Z,17.44
2018-05-12T08:30:02.311Z,17.28
2018-05-12T08:35:02.307Z,17.1
2018-05-12T08:40:02.329Z,17.07
2018-05-12T08:45:02.314Z,17.13
2018-05-12T08:50:02.319Z,17.22
2018-05-12T08:55:02.324Z,17.26
2018-05-12T09:00:02.336Z,17.62
2018-05-12T09:05:02.327Z,19.02
2018-05-12T09:10:02.355Z,20.15
2018-05-12T09:15:02.334Z,21.43
2018-05-12T09:20:02.341Z,22.36
2018-05-12T09:25:02.337Z,23.16
2018-05-12T09:30:02.347Z,23.51
2018-05-12T09:35:02.342Z,23.83
2018-05-12T09:40:02.341Z,23.88
2018-05-12T09:45:02.352Z,24.34
2018-05-12T09:50:02.359Z,24.61
2018-05-12T09:55:01.359Z,24
2018-05-12T10:00:01.351Z,22.77
2018-05-12T10:05:01.359Z,22.88
2018-05-12T10:10:01.362Z,23.59
2018-05-12T10:15:01.372Z,23.77
2018-05-12T10:20:01.377Z,22.67
2018-05-12T10:25:01.373Z,21.78
2018-05-12T10:30:01.369Z,22.07
2018-05-12T10:35:01.373Z,22.16
2018-05-12T10:40:01.390Z,22.03
2018-05-12T10:45:01.392Z,21.85
2018-05-12T10:50:01.404Z,21.76
2018-05-12T10:55:01.391Z,21.62
2018-05-12T11:00:01.394Z,21.5
2018-05-12T11:05:01.412Z,21.48
2018-05-12T11:10:01.403Z,21.48
2018-05-12T11:15:01.409Z,21.36
2018-05-12T11:20:01.410Z,21.31
2018-05-12T11:25:01.408Z,21.33
2018-05-12T11:30:01.413Z,21.3
2018-05-12T11:35:01.424Z,21.34
2018-05-12T11:40:01.426Z,21.31
2018-05-12T11:45:01.419Z,21.24
2018-05-12T11:50:01.432Z,21.66
2018-05-12T11:55:01.424Z,21.6
2018-05-12T12:00:01.435Z,21.44
2018-05-12T12:05:01.426Z,21.72
2018-05-12T12:10:01.432Z,22.23
2018-05-12T12:15:01.436Z,22.46
2018-05-12T12:20:01.436Z,22.46
2018-05-12T12:25:01.439Z,22.29
2018-05-12T12:30:01.441Z,22.29
2018-05-12T12:35:01.452Z,22.5
2018-05-12T12:40:01.446Z,22.58
2018-05-12T12:45:01.519Z,22.61
2018-05-12T12:50:01.453Z,22.64
2018-05-12T12:55:01.456Z,22.68
2018-05-12T13:00:01.474Z,22.54
2018-05-12T13:05:01.459Z,22.57
2018-05-12T13:10:01.463Z,22.71
2018-05-12T13:15:01.476Z,22.8
2018-05-12T13:20:01.470Z,22.82
2018-05-12T13:25:01.470Z,22.92
2018-05-12T13:30:01.482Z,23.03
2018-05-12T13:36:40.900Z,22.96
2018-05-12T13:39:07.420Z,22.72
2018-05-12T13:39:12.426Z,22.71
2018-05-12T13:40:02.211Z,22.65
2018-05-12T13:45:02.238Z,22.4
2018-05-12T13:46:41.059Z,22.33
2018-05-12T13:50:02.215Z,22.25
2018-05-12T13:55:03.067Z,22.01
2018-05-12T14:00:02.321Z,21.83
2018-05-12T14:05:02.309Z,21.64
2018-05-12T14:10:02.313Z,21.78
2018-05-12T14:15:02.334Z,21.76
2018-05-12T14:20:02.321Z,21.75
2018-05-12T14:25:02.323Z,21.97
2018-05-12T14:30:02.346Z,21.95
2018-05-12T14:35:02.320Z,21.7
2018-05-12T14:40:02.322Z,21.61
2018-05-12T14:45:02.336Z,21.48
2018-05-12T14:50:02.332Z,21.38
2018-05-12T14:55:02.331Z,21.63
2018-05-12T15:00:02.332Z,21.74
2018-05-12T15:05:02.344Z,21.68
2018-05-12T15:10:02.342Z,21.67
2018-05-12T15:15:02.341Z,21.61
2018-05-12T15:20:02.342Z,21.7
2018-05-12T15:25:02.352Z,21.79
2018-05-12T15:30:02.347Z,21.81
2018-05-12T15:35:02.359Z,21.79
2018-05-12T15:40:02.350Z,21.7
2018-05-12T15:45:02.356Z,21.59
2018-05-12T15:50:02.437Z,21.54
2018-05-12T15:55:01.361Z,21.67
2018-05-12T16:00:01.368Z,21.81
2018-05-12T16:05:01.368Z,21.81
2018-05-12T16:10:01.372Z,21.82
2018-05-12T16:15:01.385Z,22.02
2018-05-12T16:20:01.388Z,22.27
2018-05-12T16:25:01.385Z,22.31
2018-05-12T16:30:01.385Z,22.13
2018-05-12T16:35:01.394Z,22.07
2018-05-12T16:40:01.388Z,21.99
2018-05-12T16:43:47.077Z,21.97
2018-05-12T16:45:00.358Z,21.96
2018-05-12T16:50:00.365Z,21.88
2018-05-12T16:55:00.386Z,21.77
2018-05-12T17:00:00.364Z,21.65
2018-05-12T17:05:00.366Z,21.43
2018-05-12T17:10:00.375Z,21.21
2018-05-12T17:15:00.375Z,21.04
2018-05-12T17:18:13.690Z,20.95
2018-05-12T17:20:00.437Z,20.91
2018-05-12T17:23:01.531Z,20.8
2018-05-12T17:24:10.283Z,20.77
2018-05-12T17:24:55.320Z,20.75
2018-05-12T17:25:03.425Z,20.75
2018-05-12T17:30:03.437Z,20.61
2018-05-12T17:35:03.439Z,20.46
2018-05-12T17:40:03.446Z,20.31
2018-05-12T17:45:03.441Z,20.18
2018-05-12T17:50:03.485Z,20.12
2018-05-12T17:55:03.451Z,20.05
2018-05-12T18:00:03.453Z,19.95
2018-05-12T18:05:03.457Z,19.88
2018-05-12T18:10:03.468Z,19.79
2018-05-12T18:15:03.460Z,19.67
2018-05-12T18:20:03.463Z,19.54
2018-05-12T18:25:03.594Z,19.42
2018-05-12T18:30:03.475Z,19.29
2018-05-12T18:35:03.489Z,19.17
2018-05-12T18:40:03.479Z,19.08
2018-05-12T18:45:03.475Z,18.96
2018-05-12T18:50:03.477Z,18.84
2018-05-12T18:55:03.479Z,18.71
2018-05-12T19:00:03.503Z,18.61
2018-05-12T19:05:03.490Z,18.5
2018-05-12T19:10:03.491Z,18.39
2018-05-12T19:15:03.481Z,18.27
2018-05-12T19:20:03.499Z,18.17
2018-05-12T19:25:03.492Z,18.06
2018-05-12T19:30:03.501Z,17.98
2018-05-12T19:35:03.499Z,17.89
2018-05-12T19:40:03.496Z,17.8
2018-05-12T19:45:03.498Z,17.72
2018-05-12T19:50:03.502Z,17.62
2018-05-12T19:55:03.509Z,17.5
2018-05-12T20:00:03.506Z,17.4
2018-05-12T20:05:03.515Z,17.36
2018-05-12T20:10:03.520Z,17.31
2018-05-12T20:15:03.534Z,17.26
2018-05-12T20:20:03.540Z,17.23
2018-05-12T20:25:03.536Z,17.21
2018-05-12T20:30:03.532Z,17.2
2018-05-12T20:35:03.534Z,17.15
2018-05-12T20:40:03.532Z,17.1
2018-05-12T20:45:03.558Z,17.07
2018-05-12T20:50:03.551Z,17.02
2018-05-12T20:55:03.542Z,16.94
2018-05-12T21:00:03.551Z,16.89
2018-05-12T21:05:03.554Z,16.84
2018-05-12T21:10:03.549Z,16.77
2018-05-12T21:15:03.561Z,16.71
2018-05-12T21:20:03.569Z,16.64
2018-05-12T21:25:03.563Z,16.6
2018-05-12T21:30:03.569Z,16.58
2018-05-12T21:35:03.578Z,16.55
2018-05-12T21:40:03.575Z,16.54
2018-05-12T21:45:03.573Z,16.52
2018-05-12T21:50:03.576Z,16.52
2018-05-12T21:55:03.580Z,16.57
2018-05-12T22:00:03.580Z,16.59
2018-05-12T22:05:03.584Z,16.62
2018-05-12T22:10:03.588Z,16.64
2018-05-12T22:15:03.587Z,16.62
2018-05-12T22:20:03.592Z,16.56
2018-05-12T22:25:03.592Z,16.52
2018-05-12T22:30:03.620Z,16.48
2018-05-12T22:35:03.609Z,16.44
2018-05-12T22:40:03.618Z,16.41
2018-05-12T22:45:03.612Z,16.41
2018-05-12T22:50:03.606Z,16.4
2018-05-12T22:55:03.637Z,16.36
2018-05-12T23:00:03.638Z,16.35
2018-05-12T23:05:03.620Z,16.33
2018-05-12T23:10:03.637Z,16.31
2018-05-12T23:15:03.616Z,16.29
2018-05-12T23:20:03.625Z,16.28
2018-05-12T23:25:03.739Z,16.28
2018-05-12T23:30:03.653Z,16.25
2018-05-12T23:35:03.640Z,16.21
2018-05-12T23:40:03.646Z,16.19
2018-05-12T23:45:03.648Z,16.17
2018-05-12T23:50:03.653Z,16.13
2018-05-12T23:55:03.667Z,16.07
